Terminal Aerodrome Forecast
Issued by NWS Cleveland, OH

Home | Current Version | Previous Version | Text Only | Print | Product List | Glossary Off
Versions: 1 2 3 4 5 6 7 8 9 10 11 12 13 14 15 16 17 18 19 20 21

000
FTUS41 KCLE 250300 AAA
TAFCAK
TAF AMD
KCAK 250307Z 2503/2524 24014G20KT P6SM -SN OVC040
      TEMPO 2505/2509 3SM -SHSN OVC025
     FM250900 24010KT 6SM -SN BKN025 OVC040
     FM251200 29008KT P6SM BKN025
     FM251500 30007KT P6SM BKN250=

USA.gov is the U.S. government's official web portal to all federal, state and local government web resources and services.